createdAt,value
2023-05-14T00:04:12.604Z,42.49
2023-05-14T00:09:14.382Z,42.42
2023-05-14T00:14:16.234Z,42.22
2023-05-14T00:19:18.133Z,41.92
2023-05-14T00:24:20.035Z,41.68
2023-05-14T00:29:21.778Z,42.40
2023-05-14T00:34:23.568Z,42.31
2023-05-14T00:39:25.393Z,42.21
2023-05-14T00:44:27.245Z,42.47
2023-05-14T00:49:29.392Z,42.09
2023-05-14T00:54:31.951Z,41.37
2023-05-14T00:59:34.268Z,42.32
2023-05-14T01:04:37.734Z,42.13
2023-05-14T01:09:54.946Z,45.75
2023-05-14T01:15:16.428Z,44.83
2023-05-14T01:20:18.463Z,45.44
2023-05-14T01:25:20.401Z,44.32
2023-05-14T01:30:54.628Z,43.96
2023-05-14T01:35:56.770Z,43.26
2023-05-14T01:41:00.143Z,46.55
2023-05-14T01:46:02.164Z,45.03
2023-05-14T01:51:04.271Z,44.33
2023-05-14T01:56:06.243Z,43.73
2023-05-14T02:01:08.183Z,44.65
2023-05-14T02:06:09.931Z,43.83
2023-05-14T02:11:11.681Z,43.80
2023-05-14T02:16:14.045Z,43.41
2023-05-14T02:21:15.933Z,43.17
2023-05-14T02:26:17.868Z,42.94
2023-05-14T02:31:19.692Z,42.81
2023-05-14T02:36:21.492Z,42.46
2023-05-14T02:41:23.347Z,43.20
2023-05-14T02:46:27.025Z,43.99
2023-05-14T02:51:30.166Z,45.52
2023-05-14T02:56:31.923Z,46.29
2023-05-14T03:01:33.667Z,47.63
2023-05-14T03:06:36.008Z,45.90
2023-05-14T03:11:37.765Z,45.71
2023-05-14T03:16:42.322Z,45.72
2023-05-14T03:21:44.499Z,44.55
2023-05-14T03:26:46.360Z,44.16
2023-05-14T03:31:49.933Z,44.71
2023-05-14T03:36:51.707Z,43.80
2023-05-14T03:41:53.626Z,43.27
2023-05-14T03:46:55.937Z,43.30
2023-05-14T03:51:59.318Z,43.90
2023-05-14T03:57:01.983Z,43.18
2023-05-14T04:02:04.180Z,43.67
2023-05-14T04:07:05.947Z,43.28
2023-05-14T04:12:08.153Z,43.46
2023-05-14T04:17:10.007Z,43.74
2023-05-14T04:22:11.842Z,43.32
2023-05-14T04:27:22.523Z,42.84
2023-05-14T04:32:24.647Z,42.73
2023-05-14T04:37:26.447Z,42.48
2023-05-14T04:42:28.230Z,43.53
2023-05-14T04:47:30.076Z,44.43
2023-05-14T04:52:33.309Z,47.88
2023-05-14T04:57:35.039Z,47.95
2023-05-14T05:02:36.866Z,51.08
2023-05-14T05:07:38.796Z,52.92
2023-05-14T05:12:41.478Z,52.65
2023-05-14T05:17:43.350Z,51.81
2023-05-14T05:22:46.590Z,49.50
2023-05-14T05:27:48.475Z,48.19
2023-05-14T05:32:50.484Z,47.80
2023-05-14T05:37:52.280Z,45.65
2023-05-14T05:42:54.177Z,46.02
2023-05-14T05:47:56.087Z,49.04
2023-05-14T05:52:59.350Z,50.67
2023-05-14T05:58:01.125Z,49.51
2023-05-14T06:03:03.033Z,51.59
2023-05-14T06:08:05.423Z,51.44
2023-05-14T06:13:07.279Z,49.53
2023-05-14T06:18:09.290Z,56.73
2023-05-14T06:23:12.256Z,59.04
2023-05-14T06:28:14.176Z,54.82
2023-05-14T06:33:15.921Z,53.03
2023-05-14T06:38:17.707Z,57.20
2023-05-14T06:43:19.513Z,58.42
2023-05-14T06:48:21.704Z,59.42
2023-05-14T06:53:23.703Z,60.61
2023-05-14T06:58:25.568Z,62.10
2023-05-14T07:03:27.397Z,58.91
2023-05-14T07:08:29.198Z,53.75
2023-05-14T07:13:30.982Z,56.63
2023-05-14T07:18:32.894Z,52.15
2023-05-14T07:23:41.302Z,50.72
2023-05-14T07:28:43.044Z,51.67
2023-05-14T07:33:44.851Z,51.61
2023-05-14T07:38:46.713Z,51.70
2023-05-14T07:43:48.544Z,58.04
2023-05-14T07:48:50.361Z,60.67
2023-05-14T07:53:52.183Z,56.47
2023-05-14T07:58:53.912Z,56.35
2023-05-14T08:03:55.750Z,58.06
2023-05-14T08:08:57.889Z,59.47
2023-05-14T08:13:59.800Z,57.92
2023-05-14T08:19:01.695Z,60.48
2023-05-14T08:24:03.845Z,56.02
2023-05-14T08:29:05.592Z,58.58
2023-05-14T08:34:07.407Z,57.73
2023-05-14T08:39:09.422Z,61.58
2023-05-14T08:44:15.398Z,60.36
2023-05-14T08:49:46.544Z,58.67
2023-05-14T08:54:50.611Z,58.36
2023-05-14T08:59:55.867Z,57.02
2023-05-14T09:04:59.605Z,60.06
2023-05-14T09:10:03.836Z,62.56
2023-05-14T09:15:06.763Z,62.27
2023-05-14T09:20:09.741Z,63.86
2023-05-14T09:25:14.448Z,57.17
2023-05-14T09:30:16.346Z,59.27
2023-05-14T09:35:23.104Z,54.66
2023-05-14T09:40:25.215Z,52.77
2023-05-14T09:45:27.257Z,53.86
2023-05-14T09:50:29.091Z,56.11
2023-05-14T09:55:31.992Z,52.44
2023-05-14T10:00:34.704Z,59.32
2023-05-14T10:05:37.682Z,59.32
2023-05-14T10:10:39.624Z,61.23
2023-05-14T10:15:42.019Z,55.23
2023-05-14T10:20:48.136Z,56.04
2023-05-14T10:25:50.140Z,53.61
2023-05-14T10:30:51.981Z,54.72
2023-05-14T10:36:07.733Z,52.61
2023-05-14T10:41:15.708Z,51.19
2023-05-14T10:46:18.086Z,55.47
2023-05-14T10:51:22.899Z,59.42
2023-05-14T10:56:24.951Z,54.97
2023-05-14T11:01:28.897Z,52.48
2023-05-14T11:06:31.358Z,51.44
2023-05-14T11:11:33.211Z,50.95
2023-05-14T11:16:35.550Z,50.95
2023-05-14T11:21:37.478Z,49.60
2023-05-14T11:26:39.568Z,47.31
2023-05-14T11:31:41.585Z,48.64
2023-05-14T11:36:43.653Z,46.64
2023-05-14T11:41:46.200Z,45.37
2023-05-14T11:46:57.971Z,43.91
2023-05-14T11:52:04.841Z,43.50
2023-05-14T11:57:15.566Z,43.74
2023-05-14T12:02:19.688Z,45.05
2023-05-14T12:07:21.558Z,53.77
2023-05-14T12:12:23.383Z,49.32
2023-05-14T12:17:25.284Z,49.94
2023-05-14T12:22:29.758Z,48.29
2023-05-14T12:27:31.631Z,47.66
2023-05-14T12:32:34.788Z,51.82
2023-05-14T12:37:37.574Z,49.04
2023-05-14T12:42:39.581Z,44.65
2023-05-14T12:47:41.504Z,43.18
2023-05-14T12:52:43.442Z,41.27
2023-05-14T12:57:45.252Z,42.54
2023-05-14T13:02:47.487Z,44.40
2023-05-14T13:07:49.317Z,45.88
2023-05-14T13:12:52.693Z,45.82
2023-05-14T13:17:54.567Z,50.72
2023-05-14T13:22:57.265Z,46.52
2023-05-14T13:27:59.204Z,49.60
2023-05-14T13:33:01.201Z,43.07
2023-05-14T13:38:03.053Z,40.61
2023-05-14T13:43:04.922Z,39.58
2023-05-14T13:48:06.857Z,39.04
2023-05-14T13:53:08.724Z,43.59
2023-05-14T13:58:10.828Z,41.43
2023-05-14T14:03:12.583Z,43.45
2023-05-14T14:13:23.657Z,44.37
2023-05-14T14:18:25.571Z,39.72
2023-05-14T14:23:27.483Z,43.57
2023-05-14T14:28:29.460Z,53.70
2023-05-14T14:33:31.306Z,47.28
2023-05-14T14:38:33.120Z,44.40
2023-05-14T14:43:34.911Z,40.98
2023-05-14T14:48:41.278Z,39.20
2023-05-14T14:53:43.086Z,38.73
2023-05-14T14:58:45.612Z,36.94
2023-05-14T15:03:48.432Z,35.21
2023-05-14T15:08:50.242Z,36.84
2023-05-14T15:13:52.044Z,43.84
2023-05-14T15:18:54.181Z,39.90
2023-05-14T15:23:56.200Z,42.96
2023-05-14T15:28:59.135Z,42.34
2023-05-14T15:34:01.252Z,39.27
2023-05-14T15:39:03.154Z,38.38
2023-05-14T15:44:05.266Z,38.18
2023-05-14T15:49:07.013Z,38.04
2023-05-14T15:54:08.965Z,36.53
2023-05-14T16:04:12.575Z,37.59
2023-05-14T16:09:14.806Z,37.56
2023-05-14T16:14:16.628Z,34.95
2023-05-14T16:19:18.512Z,34.57
2023-05-14T16:24:20.666Z,35.61
2023-05-14T16:29:22.684Z,34.34
2023-05-14T16:34:24.502Z,40.56
2023-05-14T16:39:26.324Z,39.04
2023-05-14T16:44:28.218Z,38.76
2023-05-14T16:49:30.049Z,36.01
2023-05-14T16:54:31.826Z,40.85
2023-05-14T16:59:33.642Z,35.92
2023-05-14T17:04:38.796Z,37.78
2023-05-14T17:09:40.827Z,39.93
2023-05-14T17:14:42.634Z,36.85
2023-05-14T17:19:46.133Z,38.29
2023-05-14T17:24:47.948Z,39.05
2023-05-14T17:29:52.675Z,38.52
2023-05-14T17:34:54.479Z,37.98
2023-05-14T17:39:56.333Z,41.01
2023-05-14T17:44:58.117Z,42.33
2023-05-14T17:49:59.862Z,40.66
2023-05-14T17:55:01.643Z,40.05
2023-05-14T18:00:04.912Z,39.87
2023-05-14T18:05:12.570Z,40.72
2023-05-14T18:10:14.347Z,40.46
2023-05-14T18:15:16.311Z,39.83
2023-05-14T18:20:18.262Z,38.92
2023-05-14T18:25:20.111Z,38.58
2023-05-14T18:30:22.095Z,38.27
2023-05-14T18:35:23.990Z,38.52
2023-05-14T18:40:25.888Z,39.59
2023-05-14T18:45:27.723Z,39.91
2023-05-14T18:50:29.667Z,41.35
2023-05-14T18:55:31.778Z,39.79
2023-05-14T19:00:33.648Z,40.45
2023-05-14T19:05:35.508Z,42.03
2023-05-14T19:10:37.338Z,42.42
2023-05-14T19:15:39.256Z,46.49
2023-05-14T19:20:42.198Z,44.57
2023-05-14T19:25:44.033Z,43.02
2023-05-14T19:30:46.018Z,43.23
2023-05-14T19:35:47.820Z,40.96
2023-05-14T19:40:51.119Z,41.48
2023-05-14T19:45:52.994Z,42.75
2023-05-14T19:50:54.808Z,42.57
2023-05-14T19:56:00.645Z,43.18
2023-05-14T20:01:02.526Z,42.71
2023-05-14T20:06:04.383Z,41.75
2023-05-14T20:11:06.946Z,40.43
2023-05-14T20:16:08.796Z,40.56
2023-05-14T20:21:10.908Z,41.04
2023-05-14T20:26:12.765Z,41.57
2023-05-14T20:31:14.639Z,42.58
2023-05-14T20:36:16.973Z,43.18
2023-05-14T20:41:18.811Z,43.01
2023-05-14T20:46:20.667Z,43.21
2023-05-14T20:51:22.572Z,41.91
2023-05-14T20:56:24.490Z,42.66
2023-05-14T21:01:26.293Z,42.21
2023-05-14T21:06:28.079Z,41.55
2023-05-14T21:11:29.922Z,42.35
2023-05-14T21:16:32.829Z,41.05
2023-05-14T21:21:34.610Z,40.96
2023-05-14T21:26:37.141Z,40.58
2023-05-14T21:31:39.076Z,40.70
2023-05-14T21:36:40.944Z,40.80
2023-05-14T21:41:42.777Z,41.25
2023-05-14T21:46:44.500Z,39.95
2023-05-14T21:51:46.718Z,40.80
2023-05-14T21:56:48.758Z,40.62
2023-05-14T22:02:06.069Z,40.43
2023-05-14T22:07:08.992Z,41.41
2023-05-14T22:12:11.636Z,42.78
2023-05-14T22:17:13.383Z,41.56
2023-05-14T22:22:15.094Z,43.27
2023-05-14T22:27:17.779Z,43.68
2023-05-14T22:32:19.725Z,44.81
2023-05-14T22:37:21.597Z,45.18
2023-05-14T22:42:23.492Z,44.83
2023-05-14T22:47:25.884Z,44.67
2023-05-14T22:52:27.682Z,46.26
2023-05-14T22:57:29.758Z,45.21
2023-05-14T23:02:31.537Z,45.81
2023-05-14T23:07:33.386Z,46.94
2023-05-14T23:12:35.299Z,45.77
2023-05-14T23:17:38.068Z,47.73
2023-05-14T23:22:40.314Z,48.07
2023-05-14T23:27:42.114Z,48.76
2023-05-14T23:32:44.054Z,46.32
2023-05-14T23:37:47.414Z,44.47
2023-05-14T23:42:49.301Z,44.01
2023-05-14T23:47:51.597Z,43.01
2023-05-14T23:52:54.882Z,42.45
2023-05-14T23:57:56.788Z,42.63
